createdAt,value
2023-10-07T00:00:04.516Z,27.02
2023-10-07T00:00:34.577Z,27.01
2023-10-07T00:01:04.624Z,27.02
2023-10-07T00:01:34.783Z,27.03
2023-10-07T00:02:04.770Z,26.99
2023-10-07T00:02:34.846Z,27.03
2023-10-07T00:03:04.973Z,27.01
2023-10-07T00:03:34.943Z,27.01
2023-10-07T00:04:05.067Z,27.01
2023-10-07T00:04:35.116Z,27.02
2023-10-07T00:05:05.192Z,27.01
2023-10-07T00:05:35.257Z,26.99
2023-10-07T00:06:05.291Z,27.01
2023-10-07T00:06:35.404Z,27.02
2023-10-07T00:07:05.459Z,27.01
2023-10-07T00:07:35.520Z,26.99
2023-10-07T00:08:05.543Z,27.02
2023-10-07T00:08:35.579Z,27.02
2023-10-07T00:09:05.649Z,26.99
2023-10-07T00:09:35.692Z,27.01
2023-10-07T00:10:05.757Z,27.02
2023-10-07T00:10:35.874Z,27.01
2023-10-07T00:11:05.931Z,27.01
2023-10-07T00:11:35.982Z,27.01
2023-10-07T00:12:06.028Z,27.01
2023-10-07T00:12:36.076Z,27.01
2023-10-07T00:13:06.102Z,26.99
2023-10-07T00:13:36.158Z,26.99
2023-10-07T00:14:06.245Z,27.03
2023-10-07T00:14:36.624Z,26.99
2023-10-07T00:15:06.303Z,26.98
2023-10-07T00:16:06.361Z,26.99
2023-10-07T00:16:36.518Z,26.99
2023-10-07T00:17:06.522Z,26.98
2023-10-07T00:17:36.623Z,27.02
2023-10-07T00:18:06.718Z,26.99
2023-10-07T00:18:36.595Z,26.98
2023-10-07T00:19:06.641Z,26.99
2023-10-07T00:19:36.738Z,26.98
2023-10-07T00:20:06.772Z,26.99
2023-10-07T00:20:36.803Z,26.98
2023-10-07T00:21:06.787Z,26.99
2023-10-07T00:22:06.865Z,26.98
2023-10-07T00:22:36.880Z,26.99
2023-10-07T00:23:06.917Z,26.97
2023-10-07T00:23:36.924Z,26.98
2023-10-07T00:24:07.045Z,26.99
2023-10-07T00:24:37.078Z,26.99
2023-10-07T00:25:07.058Z,26.98
2023-10-07T00:26:07.193Z,26.98
2023-10-07T00:26:37.205Z,26.99
2023-10-07T00:27:07.213Z,26.97
2023-10-07T00:27:37.203Z,26.98
2023-10-07T00:28:37.401Z,26.98
2023-10-07T00:29:07.231Z,26.95
2023-10-07T00:30:07.348Z,26.98
2023-10-07T00:30:37.376Z,26.97
2023-10-07T00:31:07.500Z,26.94
2023-10-07T00:31:37.526Z,26.97
2023-10-07T00:32:07.526Z,26.95
2023-10-07T00:32:37.552Z,26.97
2023-10-07T00:33:07.705Z,26.97
2023-10-07T00:33:37.789Z,26.95
2023-10-07T00:34:07.864Z,26.98
2023-10-07T00:34:37.833Z,26.97
2023-10-07T00:35:07.966Z,26.98
2023-10-07T00:35:37.954Z,26.97
2023-10-07T00:36:07.991Z,26.97
2023-10-07T00:36:38.061Z,26.97
2023-10-07T00:37:08.098Z,26.97
2023-10-07T00:37:38.182Z,26.98
2023-10-07T00:38:08.208Z,26.98
2023-10-07T00:38:38.246Z,26.95
2023-10-07T00:39:08.327Z,26.97
2023-10-07T00:39:38.299Z,26.97
2023-10-07T00:40:08.372Z,26.97
2023-10-07T00:40:38.442Z,26.97
2023-10-07T00:41:08.509Z,26.97
2023-10-07T00:41:38.554Z,26.95
2023-10-07T00:42:08.612Z,26.95
2023-10-07T00:42:38.674Z,26.98
2023-10-07T00:43:08.723Z,26.95
2023-10-07T00:43:38.808Z,26.97
2023-10-07T00:44:08.885Z,26.92
2023-10-07T00:44:38.969Z,26.97
2023-10-07T00:45:08.858Z,26.95
2023-10-07T00:45:38.915Z,26.94
2023-10-07T00:46:09.044Z,26.95
2023-10-07T00:46:39.046Z,26.94
2023-10-07T00:47:09.092Z,26.94
2023-10-07T00:47:39.162Z,26.92
2023-10-07T00:48:09.198Z,26.94
2023-10-07T00:48:39.232Z,26.95
2023-10-07T00:49:09.291Z,26.95
2023-10-07T00:49:39.334Z,26.95
2023-10-07T00:50:09.433Z,26.95
2023-10-07T00:50:39.478Z,26.92
2023-10-07T00:51:09.515Z,26.92
2023-10-07T00:51:39.570Z,26.95
2023-10-07T00:52:09.617Z,26.92
2023-10-07T00:52:39.715Z,26.92
2023-10-07T00:53:09.890Z,26.91
2023-10-07T00:53:39.805Z,26.94
2023-10-07T00:54:10.023Z,26.91
2023-10-07T00:54:39.919Z,26.92
2023-10-07T00:55:10.150Z,26.91
2023-10-07T00:55:40.063Z,26.91
2023-10-07T00:56:40.042Z,26.92
2023-10-07T00:57:10.094Z,26.94
2023-10-07T00:57:40.147Z,26.92
2023-10-07T00:58:10.189Z,26.91
2023-10-07T00:58:40.230Z,26.91
2023-10-07T00:59:10.260Z,26.91
2023-10-07T00:59:40.307Z,26.91
2023-10-07T01:00:10.344Z,26.92
2023-10-07T01:00:40.405Z,26.91
2023-10-07T01:01:10.473Z,26.92
2023-10-07T01:01:40.620Z,26.91
2023-10-07T01:02:10.662Z,26.91
2023-10-07T01:02:40.681Z,26.91
2023-10-07T01:03:10.631Z,26.91
2023-10-07T01:03:40.698Z,26.90
2023-10-07T01:04:10.996Z,26.90
2023-10-07T01:04:41.018Z,26.91
2023-10-07T01:05:11.014Z,26.90
2023-10-07T01:05:41.072Z,26.92
2023-10-07T01:06:11.039Z,26.91
2023-10-07T01:07:11.008Z,26.90
2023-10-07T01:07:41.057Z,26.91
2023-10-07T01:08:11.120Z,26.91
2023-10-07T01:08:41.168Z,26.91
2023-10-07T01:09:11.204Z,26.92
2023-10-07T01:09:41.269Z,26.92
2023-10-07T01:10:11.321Z,26.88
2023-10-07T01:10:41.436Z,26.92
2023-10-07T01:11:11.410Z,26.90
2023-10-07T01:11:41.484Z,26.91
2023-10-07T01:12:11.483Z,26.91
2023-10-07T01:12:41.557Z,26.90
2023-10-07T01:13:11.572Z,26.91
2023-10-07T01:13:41.654Z,26.91
2023-10-07T01:14:11.976Z,26.88
2023-10-07T01:14:41.793Z,26.90
2023-10-07T01:15:11.852Z,26.90
2023-10-07T01:15:41.907Z,26.88
2023-10-07T01:16:11.963Z,26.87
2023-10-07T01:16:42.756Z,26.90
2023-10-07T01:17:12.084Z,26.88
2023-10-07T01:17:42.227Z,26.90
2023-10-07T01:18:12.176Z,26.88
2023-10-07T01:18:42.213Z,26.87
2023-10-07T01:19:12.257Z,26.88
2023-10-07T01:19:42.320Z,26.90
2023-10-07T01:20:12.351Z,26.87
2023-10-07T01:20:42.356Z,26.88
2023-10-07T01:21:12.468Z,26.90
2023-10-07T01:21:42.475Z,26.90
2023-10-07T01:22:12.472Z,26.90
2023-10-07T01:22:42.501Z,26.87
2023-10-07T01:23:12.493Z,26.87
2023-10-07T01:23:42.605Z,26.90
2023-10-07T01:24:12.618Z,26.87
2023-10-07T01:24:42.623Z,26.88
2023-10-07T01:25:12.624Z,26.88
2023-10-07T01:25:42.665Z,26.88
2023-10-07T01:26:12.693Z,26.88
2023-10-07T01:26:42.696Z,26.88
2023-10-07T01:27:42.805Z,26.87
2023-10-07T01:28:12.785Z,26.88
2023-10-07T01:28:42.838Z,26.87
2023-10-07T01:29:12.883Z,26.88
2023-10-07T01:29:42.919Z,26.88
2023-10-07T01:30:12.964Z,26.87
2023-10-07T01:30:43.004Z,26.88
2023-10-07T01:31:13.082Z,26.88
2023-10-07T01:31:43.218Z,26.85
2023-10-07T01:32:13.350Z,26.84
2023-10-07T01:32:43.293Z,26.85
2023-10-07T01:33:13.547Z,26.88
2023-10-07T01:33:43.375Z,26.87
2023-10-07T01:34:43.516Z,26.85
2023-10-07T01:35:13.541Z,26.87
2023-10-07T01:35:43.587Z,26.85
2023-10-07T01:36:13.632Z,26.87
2023-10-07T01:36:43.686Z,26.87
2023-10-07T01:37:13.719Z,26.87
2023-10-07T01:37:43.869Z,26.85
2023-10-07T01:38:14.018Z,26.88
2023-10-07T01:39:13.839Z,26.84
2023-10-07T01:39:43.885Z,26.84
2023-10-07T01:40:13.931Z,26.85
2023-10-07T01:40:44.027Z,26.85
2023-10-07T01:41:14.054Z,26.87
2023-10-07T01:41:44.126Z,26.87
2023-10-07T01:42:14.143Z,26.85
2023-10-07T01:42:44.199Z,26.82
2023-10-07T01:43:14.251Z,26.84
2023-10-07T01:43:44.321Z,26.85
2023-10-07T01:44:14.409Z,26.82
2023-10-07T01:44:44.476Z,26.85
2023-10-07T01:45:14.505Z,26.84
2023-10-07T01:45:44.564Z,26.84
2023-10-07T01:46:14.631Z,26.85
2023-10-07T01:46:44.718Z,26.87
2023-10-07T01:47:14.783Z,26.84
2023-10-07T01:47:44.945Z,26.87
2023-10-07T01:48:14.876Z,26.87
2023-10-07T01:48:44.806Z,26.85
2023-10-07T01:49:14.852Z,26.85
2023-10-07T01:49:44.915Z,26.85
2023-10-07T01:50:14.981Z,26.85
2023-10-07T01:50:45.036Z,26.84
2023-10-07T01:51:15.106Z,26.87
2023-10-07T01:51:45.338Z,26.84
2023-10-07T01:52:15.380Z,26.85
2023-10-07T01:52:45.361Z,26.85
2023-10-07T01:53:45.391Z,26.84
2023-10-07T01:54:15.427Z,26.84
2023-10-07T01:54:45.509Z,26.84
2023-10-07T01:55:15.600Z,26.84
2023-10-07T01:55:45.725Z,26.84
2023-10-07T01:56:15.829Z,26.82
2023-10-07T01:56:45.883Z,26.84
2023-10-07T01:57:15.961Z,26.85
2023-10-07T01:57:46.010Z,26.85
2023-10-07T01:58:16.097Z,26.87
2023-10-07T01:58:46.147Z,26.85
2023-10-07T01:59:16.458Z,26.85
2023-10-07T01:59:46.205Z,26.82
2023-10-07T02:00:16.244Z,26.84
2023-10-07T02:00:46.333Z,26.84
2023-10-07T02:01:16.391Z,26.84
2023-10-07T02:01:46.319Z,26.84
2023-10-07T02:02:16.359Z,26.81
2023-10-07T02:02:46.421Z,26.84
2023-10-07T02:03:16.452Z,26.82
2023-10-07T02:03:46.521Z,26.82
2023-10-07T02:04:16.622Z,26.81
2023-10-07T02:04:46.740Z,26.82
2023-10-07T02:05:16.799Z,26.85
2023-10-07T02:05:46.919Z,26.82
2023-10-07T02:06:16.936Z,26.84
2023-10-07T02:06:47.002Z,26.82
2023-10-07T02:07:17.034Z,26.82
2023-10-07T02:07:47.137Z,26.80
2023-10-07T02:08:17.070Z,26.84
2023-10-07T02:08:47.112Z,26.81
2023-10-07T02:09:17.151Z,26.82
2023-10-07T02:09:47.197Z,26.84
2023-10-07T02:10:17.264Z,26.82
2023-10-07T02:10:47.398Z,26.82
2023-10-07T02:11:17.396Z,26.82
2023-10-07T02:11:47.544Z,26.82
2023-10-07T02:12:17.481Z,26.81
2023-10-07T02:12:47.540Z,26.84
2023-10-07T02:13:17.552Z,26.81
2023-10-07T02:13:47.639Z,26.82
2023-10-07T02:14:17.672Z,26.84
2023-10-07T02:14:47.736Z,26.81
2023-10-07T02:15:17.785Z,26.80
2023-10-07T02:15:47.895Z,26.82
2023-10-07T02:16:17.902Z,26.80
2023-10-07T02:16:47.966Z,26.81
2023-10-07T02:17:18.044Z,26.81
2023-10-07T02:17:48.125Z,26.81
2023-10-07T02:18:18.167Z,26.80
2023-10-07T02:18:48.346Z,26.81
2023-10-07T02:19:18.182Z,26.80
2023-10-07T02:19:48.363Z,26.78
2023-10-07T02:20:18.287Z,26.80
2023-10-07T02:20:48.296Z,26.81
2023-10-07T02:21:18.285Z,26.80
2023-10-07T02:21:48.402Z,26.82
2023-10-07T02:22:18.506Z,26.81
2023-10-07T02:22:48.560Z,26.80
2023-10-07T02:23:18.547Z,26.81
2023-10-07T02:23:48.548Z,26.80
2023-10-07T02:24:18.552Z,26.80
2023-10-07T02:24:48.565Z,26.82
2023-10-07T02:25:18.582Z,26.82
2023-10-07T02:25:48.611Z,26.84
2023-10-07T02:26:18.609Z,26.82
2023-10-07T02:26:48.611Z,26.84
2023-10-07T02:27:48.709Z,26.82
2023-10-07T02:28:18.739Z,26.82
2023-10-07T02:28:48.748Z,26.82
2023-10-07T02:29:48.721Z,26.81
2023-10-07T02:30:18.771Z,26.82
2023-10-07T02:30:48.845Z,26.82
2023-10-07T02:31:18.971Z,26.85
2023-10-07T02:31:49.002Z,26.84
2023-10-07T02:32:19.131Z,26.87
2023-10-07T02:32:49.010Z,26.88
2023-10-07T02:33:19.227Z,26.87
2023-10-07T02:33:49.042Z,26.87
2023-10-07T02:34:49.112Z,26.85
2023-10-07T02:35:19.137Z,26.88
2023-10-07T02:35:49.169Z,26.88
2023-10-07T02:36:19.207Z,26.88
2023-10-07T02:36:49.256Z,26.88
2023-10-07T02:37:19.307Z,26.90
2023-10-07T02:37:49.389Z,26.90
2023-10-07T02:38:19.607Z,26.90
2023-10-07T02:38:49.543Z,26.90
2023-10-07T02:39:52.495Z,26.92
2023-10-07T02:40:19.585Z,26.92
2023-10-07T02:40:49.652Z,26.91
2023-10-07T02:41:19.742Z,26.92
2023-10-07T02:41:49.790Z,26.91
2023-10-07T02:42:19.835Z,26.94
2023-10-07T02:42:49.884Z,26.94
2023-10-07T02:43:20.290Z,26.94
2023-10-07T02:43:50.470Z,26.92
2023-10-07T02:44:50.024Z,26.92
2023-10-07T02:45:20.062Z,26.95
2023-10-07T02:45:50.128Z,26.95
2023-10-07T02:46:20.288Z,26.95
2023-10-07T02:46:50.347Z,26.95
2023-10-07T02:47:20.325Z,26.97
2023-10-07T02:47:50.348Z,26.98
2023-10-07T02:48:20.404Z,26.97
2023-10-07T02:48:50.467Z,26.98
2023-10-07T02:49:20.502Z,26.95
2023-10-07T02:49:50.599Z,26.95
2023-10-07T02:50:20.639Z,26.97
2023-10-07T02:50:50.686Z,26.98
2023-10-07T02:51:20.728Z,26.98
2023-10-07T02:51:50.776Z,26.99
2023-10-07T02:52:21.133Z,26.98
2023-10-07T02:52:50.884Z,26.97
2023-10-07T02:53:50.925Z,26.99
2023-10-07T02:54:20.964Z,26.98
2023-10-07T02:54:50.998Z,26.97
2023-10-07T02:55:21.066Z,26.98
2023-10-07T02:55:51.148Z,26.95
2023-10-07T02:56:21.603Z,27.01
2023-10-07T02:56:51.310Z,26.98
2023-10-07T02:57:51.363Z,26.98
2023-10-07T02:58:21.411Z,26.97
2023-10-07T02:58:51.536Z,26.99
2023-10-07T02:59:21.447Z,26.97
2023-10-07T02:59:51.495Z,27.01
2023-10-07T03:00:21.537Z,26.99
2023-10-07T03:00:53.515Z,26.99
2023-10-07T03:01:21.687Z,26.98
2023-10-07T03:01:51.747Z,26.98
2023-10-07T03:02:21.860Z,26.97
2023-10-07T03:02:51.927Z,26.98
2023-10-07T03:03:22.111Z,26.97
2023-10-07T03:03:51.933Z,27.01
2023-10-07T03:04:21.977Z,26.98
2023-10-07T03:04:52.104Z,26.97
2023-10-07T03:05:22.077Z,26.99
2023-10-07T03:05:52.110Z,26.97
2023-10-07T03:06:22.158Z,26.97
2023-10-07T03:06:52.213Z,26.98
2023-10-07T03:07:22.254Z,26.98
2023-10-07T03:07:52.354Z,26.97
2023-10-07T03:08:22.380Z,26.98
2023-10-07T03:08:52.422Z,26.98
2023-10-07T03:09:22.467Z,26.98
2023-10-07T03:09:52.501Z,26.97
2023-10-07T03:10:22.812Z,26.97
2023-10-07T03:10:52.673Z,26.98
2023-10-07T03:11:52.737Z,26.97
2023-10-07T03:12:22.837Z,26.98
2023-10-07T03:12:52.913Z,26.97
2023-10-07T03:13:22.955Z,26.97
2023-10-07T03:13:53.016Z,26.95
2023-10-07T03:14:23.074Z,26.95
2023-10-07T03:14:53.109Z,26.98
2023-10-07T03:15:23.462Z,26.97
2023-10-07T03:15:53.148Z,26.97
2023-10-07T03:16:53.344Z,26.97
2023-10-07T03:17:23.316Z,26.94
2023-10-07T03:17:53.429Z,26.95
2023-10-07T03:18:23.571Z,26.97
2023-10-07T03:18:53.504Z,26.97
2023-10-07T03:19:23.545Z,26.97
2023-10-07T03:19:53.656Z,26.97
2023-10-07T03:20:23.793Z,26.97
2023-10-07T03:20:53.668Z,26.97
2023-10-07T03:21:23.666Z,26.92
2023-10-07T03:21:53.671Z,26.94
2023-10-07T03:22:23.721Z,26.95
2023-10-07T03:22:53.903Z,26.95
2023-10-07T03:23:23.866Z,26.97
2023-10-07T03:23:53.894Z,26.92
2023-10-07T03:24:24.155Z,26.94
2023-10-07T03:24:53.930Z,26.92
2023-10-07T03:25:54.055Z,26.92
2023-10-07T03:26:24.073Z,26.94
2023-10-07T03:26:54.077Z,26.94
2023-10-07T03:27:24.092Z,26.94
2023-10-07T03:27:54.083Z,26.92
2023-10-07T03:28:24.117Z,26.94
2023-10-07T03:28:54.298Z,26.92
2023-10-07T03:29:24.223Z,26.92
2023-10-07T03:29:54.259Z,26.91
2023-10-07T03:30:24.300Z,26.91
2023-10-07T03:30:54.377Z,26.92
2023-10-07T03:31:24.406Z,26.94
2023-10-07T03:31:54.483Z,26.94
2023-10-07T03:32:24.513Z,26.91
2023-10-07T03:32:54.584Z,26.92
2023-10-07T03:33:24.691Z,26.91
2023-10-07T03:33:54.641Z,26.91
2023-10-07T03:34:24.669Z,26.92
2023-10-07T03:34:54.791Z,26.92
2023-10-07T03:35:24.802Z,26.92
2023-10-07T03:35:54.850Z,26.94
2023-10-07T03:36:24.907Z,26.91
2023-10-07T03:36:54.939Z,26.91
2023-10-07T03:37:24.970Z,26.91
2023-10-07T03:37:55.053Z,26.94
2023-10-07T03:38:25.057Z,26.91
2023-10-07T03:38:55.099Z,26.91
2023-10-07T03:39:25.139Z,26.92
2023-10-07T03:39:55.193Z,26.91
2023-10-07T03:40:25.224Z,26.92
2023-10-07T03:40:55.489Z,26.90
2023-10-07T03:41:25.273Z,26.90
2023-10-07T03:41:55.309Z,26.92
2023-10-07T03:42:25.364Z,26.91
2023-10-07T03:42:55.406Z,26.91
2023-10-07T03:43:25.450Z,26.91
2023-10-07T03:43:55.547Z,26.94
2023-10-07T03:44:25.510Z,26.90
2023-10-07T03:44:55.573Z,26.91
2023-10-07T03:45:25.725Z,26.91
2023-10-07T03:45:55.714Z,26.91
2023-10-07T03:46:55.810Z,26.92
2023-10-07T03:47:25.747Z,26.92
2023-10-07T03:47:55.768Z,26.91
2023-10-07T03:48:25.791Z,26.91
2023-10-07T03:48:55.828Z,26.92
2023-10-07T03:49:25.874Z,26.91
2023-10-07T03:49:55.924Z,26.94
2023-10-07T03:50:25.959Z,26.94
2023-10-07T03:50:56.008Z,26.91
2023-10-07T03:51:26.092Z,26.94
2023-10-07T03:51:56.121Z,26.92
2023-10-07T03:52:26.162Z,26.90
2023-10-07T03:52:56.250Z,26.94
2023-10-07T03:53:26.266Z,26.91
2023-10-07T03:53:56.374Z,26.92
2023-10-07T03:54:26.405Z,26.92
2023-10-07T03:54:56.441Z,26.91
2023-10-07T03:55:26.477Z,26.92
2023-10-07T03:55:56.565Z,26.92
2023-10-07T03:56:26.605Z,26.95
2023-10-07T03:56:56.659Z,26.91
2023-10-07T03:57:26.713Z,26.94
2023-10-07T03:57:56.732Z,26.92
2023-10-07T03:58:26.777Z,26.92
2023-10-07T03:58:56.930Z,26.94
2023-10-07T03:59:26.886Z,26.95
2023-10-07T03:59:56.941Z,26.95
2023-10-07T04:00:26.972Z,26.97
2023-10-07T04:00:57.043Z,26.95
2023-10-07T04:01:27.102Z,26.94
2023-10-07T04:01:57.246Z,26.94
2023-10-07T04:02:27.406Z,26.94
2023-10-07T04:02:57.294Z,26.92
2023-10-07T04:03:27.368Z,26.97
2023-10-07T04:03:57.408Z,26.94
2023-10-07T04:04:27.483Z,26.94
2023-10-07T04:04:57.481Z,26.94
2023-10-07T04:05:27.496Z,26.92
2023-10-07T04:05:57.560Z,26.92
2023-10-07T04:06:27.605Z,26.94
2023-10-07T04:06:57.659Z,26.95
2023-10-07T04:07:27.702Z,26.92
2023-10-07T04:07:57.753Z,26.94
2023-10-07T04:08:27.835Z,26.95
2023-10-07T04:08:57.906Z,26.92
2023-10-07T04:09:27.937Z,26.95
2023-10-07T04:09:57.985Z,26.94
2023-10-07T04:10:28.055Z,26.92
2023-10-07T04:10:58.147Z,26.95
2023-10-07T04:11:28.138Z,26.92
2023-10-07T04:11:58.958Z,26.92
2023-10-07T04:12:28.289Z,26.92
2023-10-07T04:13:28.344Z,26.92
2023-10-07T04:13:58.425Z,26.92
2023-10-07T04:14:28.498Z,26.91
2023-10-07T04:14:58.566Z,26.94
2023-10-07T04:15:28.706Z,26.94
2023-10-07T04:15:58.673Z,26.92
2023-10-07T04:16:58.722Z,26.94
2023-10-07T04:17:28.762Z,26.94
2023-10-07T04:17:58.817Z,26.95
2023-10-07T04:18:28.872Z,26.94
2023-10-07T04:18:58.906Z,26.94
2023-10-07T04:19:28.956Z,26.92
2023-10-07T04:19:59.116Z,26.92
2023-10-07T04:20:29.163Z,26.92
2023-10-07T04:20:59.006Z,26.92
2023-10-07T04:21:59.098Z,26.91
2023-10-07T04:22:29.089Z,26.94
2023-10-07T04:22:59.718Z,26.91
2023-10-07T04:23:29.232Z,26.90
2023-10-07T04:23:59.245Z,26.92
2023-10-07T04:24:29.232Z,26.90
2023-10-07T04:24:59.347Z,26.92
2023-10-07T04:25:29.368Z,26.91
2023-10-07T04:25:59.381Z,26.91
2023-10-07T04:26:29.399Z,26.92
2023-10-07T04:26:59.403Z,26.90
2023-10-07T04:27:29.515Z,26.91
2023-10-07T04:27:59.692Z,26.91
2023-10-07T04:28:29.591Z,26.92
2023-10-07T04:28:59.645Z,26.92
2023-10-07T04:29:29.971Z,26.88
2023-10-07T04:29:59.723Z,26.88
2023-10-07T04:30:59.591Z,26.91
2023-10-07T04:31:29.654Z,26.91
2023-10-07T04:31:59.862Z,26.91
2023-10-07T04:32:29.815Z,26.91
2023-10-07T04:32:59.754Z,26.88
2023-10-07T04:33:29.863Z,26.91
2023-10-07T04:33:59.892Z,26.91
2023-10-07T04:34:29.935Z,26.88
2023-10-07T04:35:00.022Z,26.88
2023-10-07T04:35:30.094Z,26.88
2023-10-07T04:36:00.129Z,26.90
2023-10-07T04:36:30.159Z,26.87
2023-10-07T04:37:00.206Z,26.88
2023-10-07T04:37:30.258Z,26.87
2023-10-07T04:38:00.370Z,26.91
2023-10-07T04:38:30.297Z,26.88
2023-10-07T04:39:00.357Z,26.88
2023-10-07T04:39:30.418Z,26.88
2023-10-07T04:40:00.457Z,26.88
2023-10-07T04:40:30.498Z,26.88
2023-10-07T04:41:00.603Z,26.87
2023-10-07T04:41:30.554Z,26.85
2023-10-07T04:42:00.591Z,26.87
2023-10-07T04:42:30.632Z,26.87
2023-10-07T04:43:00.671Z,26.87
2023-10-07T04:43:33.589Z,26.85
2023-10-07T04:44:01.120Z,26.85
2023-10-07T04:44:30.809Z,26.85
2023-10-07T04:45:00.854Z,26.87
2023-10-07T04:45:30.904Z,26.85
2023-10-07T04:46:00.984Z,26.84
2023-10-07T04:46:31.260Z,26.87
2023-10-07T04:47:01.127Z,26.85
2023-10-07T04:47:31.484Z,26.88
2023-10-07T04:48:01.282Z,26.84
2023-10-07T04:48:31.313Z,26.87
2023-10-07T04:49:01.373Z,26.88
2023-10-07T04:49:31.424Z,26.84
2023-10-07T04:50:01.580Z,26.84
2023-10-07T04:50:31.500Z,26.84
2023-10-07T04:51:01.533Z,26.85
2023-10-07T04:51:31.586Z,26.85
2023-10-07T04:52:01.636Z,26.85
2023-10-07T04:52:31.942Z,26.85
2023-10-07T04:53:01.750Z,26.85
2023-10-07T04:53:31.701Z,26.85
2023-10-07T04:54:01.756Z,26.84
2023-10-07T04:54:31.808Z,26.85
2023-10-07T04:55:01.848Z,26.85
2023-10-07T04:55:31.904Z,26.84
2023-10-07T04:56:01.996Z,26.84
2023-10-07T04:56:31.937Z,26.85
2023-10-07T04:57:02.302Z,26.84
2023-10-07T04:57:32.074Z,26.85
2023-10-07T04:58:02.117Z,26.85
2023-10-07T04:58:32.176Z,26.84
2023-10-07T04:59:02.245Z,26.82
2023-10-07T04:59:32.304Z,26.84
2023-10-07T05:00:02.343Z,26.84
2023-10-07T05:00:32.378Z,26.82
2023-10-07T05:01:02.428Z,26.82
2023-10-07T05:01:33.001Z,26.85
2023-10-07T05:02:02.664Z,26.85
2023-10-07T05:02:33.035Z,26.85
2023-10-07T05:03:02.576Z,26.87
2023-10-07T05:04:02.666Z,26.85
2023-10-07T05:04:32.758Z,26.87
2023-10-07T05:05:02.813Z,26.87
2023-10-07T05:05:32.864Z,26.85
2023-10-07T05:06:02.899Z,26.87
2023-10-07T05:06:32.954Z,26.87
2023-10-07T05:07:03.015Z,26.85
2023-10-07T05:07:33.077Z,26.85
2023-10-07T05:08:03.131Z,26.87
2023-10-07T05:08:33.199Z,26.85
2023-10-07T05:09:03.245Z,26.87
2023-10-07T05:09:33.283Z,26.87
2023-10-07T05:10:03.339Z,26.87
2023-10-07T05:10:33.415Z,26.85
2023-10-07T05:11:03.522Z,26.87
2023-10-07T05:11:33.451Z,26.88
2023-10-07T05:12:03.495Z,26.87
2023-10-07T05:12:33.548Z,26.88
2023-10-07T05:13:03.579Z,26.88
2023-10-07T05:13:33.652Z,26.85
2023-10-07T05:14:03.730Z,26.88
2023-10-07T05:14:33.793Z,26.88
2023-10-07T05:15:03.825Z,26.91
2023-10-07T05:15:33.868Z,26.88
2023-10-07T05:16:03.985Z,26.88
2023-10-07T05:16:33.981Z,26.90
2023-10-07T05:17:04.031Z,26.88
2023-10-07T05:17:34.156Z,26.88
2023-10-07T05:18:04.102Z,26.90
2023-10-07T05:18:34.152Z,26.88
2023-10-07T05:19:04.196Z,26.91
2023-10-07T05:19:35.049Z,26.88
2023-10-07T05:20:04.456Z,26.90
2023-10-07T05:20:34.482Z,26.88
2023-10-07T05:21:34.468Z,26.88
2023-10-07T05:22:04.601Z,26.87
2023-10-07T05:22:34.618Z,26.91
2023-10-07T05:23:04.703Z,26.90
2023-10-07T05:23:34.621Z,26.91
2023-10-07T05:24:04.617Z,26.90
2023-10-07T05:24:34.738Z,26.87
2023-10-07T05:25:04.749Z,26.91
2023-10-07T05:25:34.762Z,26.88
2023-10-07T05:26:04.874Z,26.88
2023-10-07T05:26:34.801Z,26.90
2023-10-07T05:27:04.811Z,26.90
2023-10-07T05:27:34.805Z,26.88
2023-10-07T05:28:04.812Z,26.90
2023-10-07T05:28:34.841Z,26.88
2023-10-07T05:29:04.940Z,26.87
2023-10-07T05:29:34.962Z,26.88
2023-10-07T05:30:05.039Z,26.90
2023-10-07T05:30:35.082Z,26.90
2023-10-07T05:31:05.214Z,26.90
2023-10-07T05:31:35.206Z,26.87
2023-10-07T05:32:05.242Z,26.88
2023-10-07T05:32:35.339Z,26.87
2023-10-07T05:33:05.324Z,26.90
2023-10-07T05:33:35.387Z,26.90
2023-10-07T05:34:05.415Z,26.88
2023-10-07T05:34:35.508Z,26.87
2023-10-07T05:35:05.581Z,26.88
2023-10-07T05:35:35.620Z,26.88
2023-10-07T05:36:05.689Z,26.88
2023-10-07T05:36:35.782Z,26.87
2023-10-07T05:37:06.008Z,26.87
2023-10-07T05:37:35.835Z,26.88
2023-10-07T05:38:05.959Z,26.88
2023-10-07T05:38:35.993Z,26.87
2023-10-07T05:39:06.060Z,26.88
2023-10-07T05:39:36.112Z,26.88
2023-10-07T05:40:06.151Z,26.87
2023-10-07T05:40:36.252Z,26.85
2023-10-07T05:41:06.311Z,26.85
2023-10-07T05:41:36.374Z,26.87
2023-10-07T05:42:06.412Z,26.87
2023-10-07T05:42:36.459Z,26.87
2023-10-07T05:43:06.508Z,26.85
2023-10-07T05:43:36.588Z,26.88
2023-10-07T05:44:06.619Z,26.82
2023-10-07T05:44:36.610Z,26.85
2023-10-07T05:45:06.655Z,26.85
2023-10-07T05:45:36.738Z,26.82
2023-10-07T05:46:06.845Z,26.85
2023-10-07T05:46:36.878Z,26.85
2023-10-07T05:47:07.004Z,26.87
2023-10-07T05:47:37.067Z,26.84
2023-10-07T05:48:07.146Z,26.85
2023-10-07T05:48:37.204Z,26.85
2023-10-07T05:49:07.274Z,26.85
2023-10-07T05:49:37.340Z,26.84
2023-10-07T05:50:07.433Z,26.87
2023-10-07T05:50:37.453Z,26.85
2023-10-07T05:51:07.505Z,26.84
2023-10-07T05:51:37.644Z,26.84
2023-10-07T05:52:07.570Z,26.87
2023-10-07T05:52:37.646Z,26.84
2023-10-07T05:53:07.755Z,26.84
2023-10-07T05:53:37.690Z,26.84
2023-10-07T05:54:07.806Z,26.84
2023-10-07T05:54:37.839Z,26.85
2023-10-07T05:55:07.889Z,26.84
2023-10-07T05:55:37.949Z,26.84
2023-10-07T05:56:08.018Z,26.85
2023-10-07T05:56:38.083Z,26.84
2023-10-07T05:57:08.131Z,26.84
2023-10-07T05:57:38.167Z,26.82
2023-10-07T05:58:08.225Z,26.85
2023-10-07T05:58:38.367Z,26.82
2023-10-07T05:59:08.370Z,26.82
2023-10-07T05:59:38.414Z,26.82
2023-10-07T06:00:08.454Z,26.84
2023-10-07T06:00:38.504Z,26.82
2023-10-07T06:01:08.564Z,26.84
2023-10-07T06:01:38.754Z,26.82
2023-10-07T06:02:08.886Z,26.80
2023-10-07T06:02:38.843Z,26.81
2023-10-07T06:03:08.833Z,26.81
2023-10-07T06:03:38.892Z,26.81
2023-10-07T06:04:09.088Z,26.81
2023-10-07T06:04:39.089Z,26.82
2023-10-07T06:05:09.168Z,26.81
2023-10-07T06:05:39.220Z,26.82
2023-10-07T06:06:09.257Z,26.82
2023-10-07T06:06:39.287Z,26.82
2023-10-07T06:07:09.337Z,26.80
2023-10-07T06:07:39.416Z,26.78
2023-10-07T06:08:09.448Z,26.81
2023-10-07T06:08:39.499Z,26.80
2023-10-07T06:09:09.546Z,26.80
2023-10-07T06:09:39.584Z,26.82
2023-10-07T06:10:09.645Z,26.80
2023-10-07T06:10:39.713Z,26.80
2023-10-07T06:11:09.869Z,26.80
2023-10-07T06:11:39.794Z,26.81
2023-10-07T06:12:09.845Z,26.82
2023-10-07T06:12:39.885Z,26.80
2023-10-07T06:13:10.031Z,26.81
2023-10-07T06:13:39.980Z,26.80
2023-10-07T06:14:10.383Z,26.80
2023-10-07T06:14:40.094Z,26.81
2023-10-07T06:15:10.117Z,26.78
2023-10-07T06:15:40.183Z,26.81
2023-10-07T06:16:10.229Z,26.81
2023-10-07T06:16:40.334Z,26.78
2023-10-07T06:17:10.348Z,26.80
2023-10-07T06:17:40.356Z,26.77
2023-10-07T06:18:10.479Z,26.81
2023-10-07T06:18:40.552Z,26.80
2023-10-07T06:19:10.507Z,26.78
2023-10-07T06:19:40.568Z,26.80
2023-10-07T06:20:10.641Z,26.80
2023-10-07T06:20:40.637Z,26.78
2023-10-07T06:21:10.658Z,26.80
2023-10-07T06:21:40.653Z,26.77
2023-10-07T06:22:10.659Z,26.78
2023-10-07T06:22:40.681Z,26.80
2023-10-07T06:23:10.694Z,26.78
2023-10-07T06:23:40.691Z,26.77
2023-10-07T06:24:10.957Z,26.80
2023-10-07T06:24:40.923Z,26.78
2023-10-07T06:25:10.913Z,26.78
2023-10-07T06:25:40.971Z,26.77
2023-10-07T06:26:13.502Z,26.80
2023-10-07T06:26:41.025Z,26.77
2023-10-07T06:27:11.135Z,26.77
2023-10-07T06:27:41.150Z,26.77
2023-10-07T06:28:11.152Z,26.78
2023-10-07T06:28:41.168Z,26.77
2023-10-07T06:29:11.246Z,26.77
2023-10-07T06:29:41.256Z,26.80
2023-10-07T06:30:11.313Z,26.80
2023-10-07T06:30:41.352Z,26.75
2023-10-07T06:31:11.552Z,26.78
2023-10-07T06:31:41.525Z,26.75
2023-10-07T06:32:11.590Z,26.78
2023-10-07T06:32:41.754Z,26.78
2023-10-07T06:33:11.743Z,26.78
2023-10-07T06:33:41.771Z,26.81
2023-10-07T06:34:12.070Z,26.78
2023-10-07T06:34:41.877Z,26.78
2023-10-07T06:35:12.013Z,26.78
2023-10-07T06:35:42.024Z,26.80
2023-10-07T06:36:12.074Z,26.81
2023-10-07T06:36:42.118Z,26.80
2023-10-07T06:37:12.169Z,26.78
2023-10-07T06:37:42.239Z,26.80
2023-10-07T06:38:12.325Z,26.80
2023-10-07T06:38:42.351Z,26.80
2023-10-07T06:39:12.520Z,26.82
2023-10-07T06:39:42.440Z,26.78
2023-10-07T06:40:12.505Z,26.81
2023-10-07T06:40:42.562Z,26.80